createdAt,value
2022-08-17T00:02:04.966Z,2.00
2022-08-17T00:04:40.174Z,1.90
2022-08-17T00:07:06.918Z,2.05
2022-08-17T00:09:33.741Z,2.03
2022-08-17T00:12:41.280Z,2.30
2022-08-17T00:14:50.352Z,2.13
2022-08-17T00:17:17.437Z,2.50
2022-08-17T00:19:44.195Z,2.42
2022-08-17T00:22:34.267Z,2.03
2022-08-17T00:24:57.775Z,2.58
2022-08-17T00:27:24.536Z,1.83
2022-08-17T00:29:51.911Z,2.10
2022-08-17T00:33:13.603Z,2.25
2022-08-17T00:35:08.257Z,2.40
2022-08-17T00:37:35.136Z,2.35
2022-08-17T00:40:02.165Z,2.45
2022-08-17T00:42:31.239Z,2.40
2022-08-17T00:44:59.082Z,2.13
2022-08-17T00:47:26.059Z,2.42
2022-08-17T00:49:53.944Z,2.30
2022-08-17T00:52:24.977Z,2.38
2022-08-17T00:54:54.737Z,2.38
2022-08-17T00:57:26.125Z,2.10
2022-08-17T01:00:02.726Z,2.30
2022-08-17T01:02:41.183Z,2.72
2022-08-17T01:05:23.619Z,2.20
2022-08-17T01:07:53.407Z,2.10
2022-08-17T01:10:58.731Z,2.17
2022-08-17T01:13:12.792Z,2.35
2022-08-17T01:15:46.097Z,2.40
2022-08-17T01:18:14.189Z,2.10
2022-08-17T01:20:49.289Z,2.55
2022-08-17T01:23:20.791Z,2.50
2022-08-17T01:25:53.982Z,2.40
2022-08-17T01:28:33.452Z,2.58
2022-08-17T01:31:10.334Z,2.50
2022-08-17T01:33:37.585Z,2.47
2022-08-17T01:36:07.226Z,2.33
2022-08-17T01:38:38.540Z,2.55
2022-08-17T01:41:12.373Z,2.33
2022-08-17T01:44:01.732Z,2.53
2022-08-17T01:46:33.550Z,2.22
2022-08-17T01:49:01.180Z,2.60
2022-08-17T01:51:32.654Z,2.58
2022-08-17T01:54:07.801Z,2.40
2022-08-17T01:56:38.497Z,2.67
2022-08-17T01:59:05.445Z,2.25
2022-08-17T02:01:34.598Z,2.45
2022-08-17T02:04:02.670Z,2.40
2022-08-17T02:06:52.422Z,2.60
2022-08-17T02:09:18.627Z,2.60
2022-08-17T02:11:50.059Z,2.60
2022-08-17T02:14:17.932Z,2.42
2022-08-17T02:16:44.749Z,2.78
2022-08-17T02:19:15.904Z,2.80
2022-08-17T02:21:45.642Z,2.90
2022-08-17T02:25:01.253Z,2.67
2022-08-17T02:27:05.928Z,2.70
2022-08-17T02:29:32.742Z,2.42
2022-08-17T02:32:00.139Z,2.50
2022-08-17T02:34:27.483Z,2.60
2022-08-17T02:36:55.224Z,2.60
2022-08-17T02:39:22.077Z,2.40
2022-08-17T02:41:49.141Z,2.30
2022-08-17T02:44:39.481Z,2.40
2022-08-17T02:47:04.133Z,2.22
2022-08-17T02:49:31.162Z,2.75
2022-08-17T02:51:58.913Z,2.38
2022-08-17T02:54:39.267Z,2.38
2022-08-17T02:57:07.837Z,2.15
2022-08-17T02:59:34.589Z,2.15
2022-08-17T03:02:03.761Z,2.42
2022-08-17T03:04:31.235Z,2.28
2022-08-17T03:07:02.437Z,2.90
2022-08-17T03:09:29.276Z,2.53
2022-08-17T03:12:03.563Z,2.20
2022-08-17T03:14:32.264Z,2.65
2022-08-17T03:16:59.382Z,2.60
2022-08-17T03:19:26.203Z,2.55
2022-08-17T03:21:55.063Z,2.67
2022-08-17T03:24:28.616Z,2.50
2022-08-17T03:26:55.805Z,2.35
2022-08-17T03:29:22.677Z,2.70
2022-08-17T03:31:50.153Z,2.60
2022-08-17T03:34:17.412Z,2.63
2022-08-17T03:36:44.649Z,2.47
2022-08-17T03:39:11.434Z,2.45
2022-08-17T03:41:39.268Z,2.42
2022-08-17T03:44:06.162Z,2.30
2022-08-17T03:46:51.589Z,2.60
2022-08-17T03:49:36.894Z,2.47
2022-08-17T03:52:22.348Z,2.70
2022-08-17T03:55:07.632Z,2.30
2022-08-17T03:57:34.475Z,2.30
2022-08-17T04:00:01.330Z,2.75
2022-08-17T04:02:32.388Z,2.30
2022-08-17T04:04:59.850Z,2.50
2022-08-17T04:07:28.946Z,2.53
2022-08-17T04:09:55.848Z,2.33
2022-08-17T04:12:23.960Z,2.50
2022-08-17T04:14:52.874Z,2.70
2022-08-17T04:17:22.553Z,2.40
2022-08-17T04:19:49.372Z,2.35
2022-08-17T04:22:31.794Z,2.60
2022-08-17T04:25:08.641Z,2.45
2022-08-17T04:27:35.844Z,2.30
2022-08-17T04:30:03.625Z,2.40
2022-08-17T04:32:58.615Z,2.60
2022-08-17T04:35:23.619Z,2.42
2022-08-17T04:37:51.275Z,3.00
2022-08-17T04:40:37.524Z,2.70
2022-08-17T04:43:13.746Z,2.75
2022-08-17T04:46:05.121Z,2.55
2022-08-17T04:48:37.078Z,2.47
2022-08-17T04:51:11.713Z,2.88
2022-08-17T04:53:41.710Z,2.30
2022-08-17T04:56:11.851Z,2.70
2022-08-17T04:58:45.341Z,2.72
2022-08-17T05:01:12.682Z,2.55
2022-08-17T05:03:39.774Z,2.17
2022-08-17T05:06:06.766Z,2.50
2022-08-17T05:08:33.593Z,2.90
2022-08-17T05:11:00.420Z,2.58
2022-08-17T05:13:31.532Z,2.85
2022-08-17T05:16:03.149Z,2.83
2022-08-17T05:18:30.664Z,2.70
2022-08-17T05:20:57.925Z,2.50
2022-08-17T05:23:27.691Z,2.50
2022-08-17T05:26:11.639Z,2.50
2022-08-17T05:28:49.481Z,2.97
2022-08-17T05:31:18.215Z,2.78
2022-08-17T05:33:46.329Z,2.70
2022-08-17T05:36:42.397Z,2.60
2022-08-17T05:39:02.215Z,2.90
2022-08-17T05:41:29.179Z,2.65
2022-08-17T05:43:56.650Z,2.45
2022-08-17T05:46:27.635Z,2.95
2022-08-17T05:49:08.034Z,2.67
2022-08-17T05:51:53.764Z,2.67
2022-08-17T05:54:57.285Z,2.63
2022-08-17T05:57:47.623Z,2.50
2022-08-17T06:00:30.614Z,2.85
2022-08-17T06:03:15.309Z,2.75
2022-08-17T06:05:55.862Z,3.10
2022-08-17T06:08:42.345Z,3.20
2022-08-17T06:11:38.511Z,3.45
2022-08-17T06:14:41.897Z,3.20
2022-08-17T06:17:13.660Z,3.05
2022-08-17T06:19:50.170Z,3.38
2022-08-17T06:22:20.311Z,3.47
2022-08-17T06:25:04.491Z,3.80
2022-08-17T06:28:14.792Z,3.45
2022-08-17T06:31:00.132Z,3.30
2022-08-17T06:33:37.428Z,3.45
2022-08-17T06:36:16.029Z,3.40
2022-08-17T06:39:04.490Z,3.40
2022-08-17T06:41:42.920Z,3.63
2022-08-17T06:44:43.371Z,3.28
2022-08-17T06:47:29.306Z,3.28
2022-08-17T06:50:14.649Z,3.58
2022-08-17T06:52:51.188Z,3.22
2022-08-17T06:55:32.199Z,3.67
2022-08-17T06:58:15.735Z,3.53
2022-08-17T07:00:47.100Z,3.25
2022-08-17T07:03:28.069Z,3.20
2022-08-17T07:06:00.942Z,3.30
2022-08-17T07:08:35.555Z,3.08
2022-08-17T07:11:09.806Z,2.67
2022-08-17T07:13:55.248Z,3.00
2022-08-17T07:16:31.173Z,3.00
2022-08-17T07:18:59.435Z,2.50
2022-08-17T07:21:34.252Z,2.88
2022-08-17T07:24:30.447Z,2.80
2022-08-17T07:27:17.226Z,3.17
2022-08-17T07:30:02.419Z,3.20
2022-08-17T07:32:50.851Z,3.15
2022-08-17T07:35:23.077Z,2.72
2022-08-17T07:38:07.127Z,2.60
2022-08-17T07:41:02.116Z,3.10
2022-08-17T07:43:33.974Z,2.72
2022-08-17T07:46:29.984Z,2.83
2022-08-17T07:49:19.097Z,3.20
2022-08-17T07:51:46.652Z,2.63
2022-08-17T07:54:22.125Z,2.40
2022-08-17T07:56:53.575Z,3.22
2022-08-17T07:59:24.831Z,2.83
2022-08-17T08:01:57.942Z,3.10
2022-08-17T08:05:02.167Z,3.15
2022-08-17T08:07:34.923Z,2.70
2022-08-17T08:10:21.974Z,2.67
2022-08-17T08:13:07.584Z,3.10
2022-08-17T08:15:45.158Z,2.55
2022-08-17T08:18:53.386Z,2.60
2022-08-17T08:21:40.990Z,2.70
2022-08-17T08:24:19.576Z,2.97
2022-08-17T08:27:07.129Z,2.83
2022-08-17T08:29:49.624Z,2.70
2022-08-17T08:32:25.871Z,2.70
2022-08-17T08:35:07.304Z,2.50
2022-08-17T08:37:45.447Z,2.88
2022-08-17T08:40:47.578Z,2.20
2022-08-17T08:43:36.219Z,2.80
2022-08-17T08:46:24.048Z,2.70
2022-08-17T08:48:58.143Z,2.25
2022-08-17T08:51:52.017Z,2.45
2022-08-17T08:54:48.087Z,2.42
2022-08-17T08:57:25.458Z,2.33
2022-08-17T09:00:05.230Z,2.20
2022-08-17T09:02:59.718Z,2.28
2022-08-17T09:05:55.870Z,2.75
2022-08-17T09:08:50.551Z,2.40
2022-08-17T09:12:02.340Z,2.28
2022-08-17T09:14:51.563Z,2.28
2022-08-17T09:17:27.820Z,2.30
2022-08-17T09:20:30.473Z,2.47
2022-08-17T09:23:08.549Z,2.10
2022-08-17T09:25:51.040Z,2.22
2022-08-17T09:28:20.921Z,2.33
2022-08-17T09:30:51.631Z,2.30
2022-08-17T09:33:26.159Z,2.00
2022-08-17T09:35:58.471Z,1.98
2022-08-17T09:38:33.949Z,2.13
2022-08-17T09:41:22.481Z,2.20
2022-08-17T09:43:56.323Z,1.75
2022-08-17T09:46:29.777Z,1.90
2022-08-17T09:49:15.019Z,2.47
2022-08-17T09:51:48.647Z,1.77
2022-08-17T09:54:44.495Z,1.73
2022-08-17T09:57:30.521Z,2.20
2022-08-17T10:00:16.570Z,1.88
2022-08-17T10:02:54.341Z,2.03
2022-08-17T10:05:47.062Z,1.65
2022-08-17T10:08:23.951Z,1.95
2022-08-17T10:11:13.268Z,1.90
2022-08-17T10:13:53.860Z,1.80
2022-08-17T10:16:50.067Z,1.60
2022-08-17T10:19:36.561Z,1.77
2022-08-17T10:22:54.813Z,1.70
2022-08-17T10:25:54.589Z,1.70
2022-08-17T10:28:30.284Z,1.90
2022-08-17T10:31:30.954Z,1.57
2022-08-17T10:34:05.277Z,1.65
2022-08-17T10:37:07.214Z,1.70
2022-08-17T10:40:12.422Z,1.80
2022-08-17T10:42:56.811Z,1.55
2022-08-17T10:45:35.449Z,1.73
2022-08-17T10:48:28.276Z,1.85
2022-08-17T10:51:10.903Z,1.70
2022-08-17T10:53:40.740Z,1.98
2022-08-17T10:56:18.055Z,1.90
2022-08-17T10:58:50.893Z,1.90
2022-08-17T11:01:18.133Z,1.70
2022-08-17T11:03:54.917Z,1.80
2022-08-17T11:06:51.461Z,1.67
2022-08-17T11:09:27.668Z,1.90
2022-08-17T11:12:07.166Z,1.80
2022-08-17T11:14:52.148Z,1.90
2022-08-17T11:17:43.732Z,2.10
2022-08-17T11:21:01.347Z,2.15
2022-08-17T11:24:05.942Z,1.42
2022-08-17T11:26:36.469Z,1.60
2022-08-17T11:29:09.436Z,1.80
2022-08-17T11:31:58.138Z,1.80
2022-08-17T11:34:27.936Z,1.58
2022-08-17T11:37:12.883Z,1.80
2022-08-17T11:39:51.834Z,1.58
2022-08-17T11:42:37.461Z,1.60
2022-08-17T11:45:32.854Z,1.77
2022-08-17T11:48:33.269Z,1.70
2022-08-17T11:51:34.112Z,2.15
2022-08-17T11:59:41.984Z,1.90
2022-08-17T12:02:34.821Z,1.83
2022-08-17T12:05:25.982Z,1.80
2022-08-17T12:07:59.337Z,1.60
2022-08-17T12:10:34.345Z,1.70
2022-08-17T12:13:10.352Z,2.13
2022-08-17T12:15:42.335Z,1.60
2022-08-17T12:18:18.266Z,1.70
2022-08-17T12:20:56.070Z,1.80
2022-08-17T12:23:44.122Z,1.50
2022-08-17T12:26:17.323Z,1.80
2022-08-17T12:28:49.833Z,1.73
2022-08-17T12:31:34.372Z,1.80
2022-08-17T12:34:05.496Z,1.70
2022-08-17T12:36:33.661Z,1.70
2022-08-17T12:39:14.302Z,1.60
2022-08-17T12:41:47.973Z,1.60
2022-08-17T12:44:27.433Z,1.70
2022-08-17T12:47:01.788Z,1.70
2022-08-17T12:49:40.886Z,1.92
2022-08-17T12:52:13.801Z,1.75
2022-08-17T12:54:51.462Z,1.70
2022-08-17T12:57:38.056Z,1.85
2022-08-17T13:02:42.740Z,1.63
2022-08-17T13:05:20.604Z,1.63
2022-08-17T13:07:47.840Z,1.83
2022-08-17T13:10:32.185Z,1.52
2022-08-17T13:13:04.825Z,1.77
2022-08-17T13:15:44.459Z,2.00
2022-08-17T13:18:36.321Z,1.83
2022-08-17T13:21:03.241Z,2.03
2022-08-17T13:23:32.313Z,1.90
2022-08-17T13:26:07.649Z,2.00
2022-08-17T13:28:36.682Z,1.60
2022-08-17T13:31:33.790Z,1.70
2022-08-17T13:34:17.372Z,1.88
2022-08-17T13:36:47.926Z,1.80
2022-08-17T13:39:24.116Z,1.48
2022-08-17T13:41:53.972Z,1.60
2022-08-17T13:44:32.683Z,1.50
2022-08-17T13:47:00.632Z,2.00
2022-08-17T13:49:41.574Z,1.80
2022-08-17T13:52:40.787Z,2.05
2022-08-17T13:55:20.802Z,1.50
2022-08-17T13:58:06.514Z,1.88
2022-08-17T14:03:04.999Z,1.88
2022-08-17T14:05:33.703Z,1.40
2022-08-17T14:08:06.605Z,1.50
2022-08-17T14:10:36.356Z,1.75
2022-08-17T14:13:07.047Z,1.40
2022-08-17T14:15:54.891Z,1.40
2022-08-17T14:18:55.927Z,1.67
2022-08-17T14:21:09.854Z,1.50
2022-08-17T14:23:37.433Z,1.50
2022-08-17T14:26:08.752Z,1.80
2022-08-17T14:28:36.527Z,1.70
2022-08-17T14:31:03.736Z,1.50
2022-08-17T14:33:30.673Z,1.60
2022-08-17T14:35:58.703Z,1.60
2022-08-17T14:38:25.566Z,1.73
2022-08-17T14:40:52.719Z,1.98
2022-08-17T14:43:21.560Z,1.75
2022-08-17T14:45:48.400Z,1.35
2022-08-17T14:48:15.867Z,1.70
2022-08-17T14:50:43.848Z,1.65
2022-08-17T14:53:15.532Z,1.67
2022-08-17T14:55:43.053Z,1.40
2022-08-17T14:58:10.320Z,1.60
2022-08-17T15:00:38.521Z,1.55
2022-08-17T15:03:05.505Z,1.60
2022-08-17T15:05:35.387Z,1.38
2022-08-17T15:08:03.484Z,1.55
2022-08-17T15:10:35.231Z,1.50
2022-08-17T15:13:02.168Z,1.95
2022-08-17T15:15:29.626Z,1.40
2022-08-17T15:17:57.403Z,1.45
2022-08-17T15:20:27.951Z,1.60
2022-08-17T15:22:56.013Z,1.40
2022-08-17T15:25:25.048Z,1.42
2022-08-17T15:27:52.651Z,1.40
2022-08-17T15:30:20.237Z,1.48
2022-08-17T15:32:51.301Z,1.42
2022-08-17T15:35:28.983Z,1.25
2022-08-17T15:38:11.588Z,1.40
2022-08-17T15:40:43.120Z,1.30
2022-08-17T15:43:17.022Z,1.58
2022-08-17T15:45:45.085Z,1.60
2022-08-17T15:48:41.450Z,1.70
2022-08-17T15:51:09.506Z,1.40
2022-08-17T15:53:37.659Z,1.40
2022-08-17T15:56:05.696Z,1.60
2022-08-17T15:58:36.811Z,1.50
2022-08-17T16:01:18.232Z,1.60
2022-08-17T16:04:04.803Z,1.48
2022-08-17T16:06:34.696Z,1.40
2022-08-17T16:09:01.536Z,1.67
2022-08-17T16:11:28.403Z,1.60
2022-08-17T16:13:56.194Z,1.45
2022-08-17T16:16:23.711Z,1.50
2022-08-17T16:18:54.523Z,1.42
2022-08-17T16:21:25.847Z,1.42
2022-08-17T16:24:06.389Z,1.75
2022-08-17T16:26:42.347Z,1.35
2022-08-17T16:29:09.280Z,1.67
2022-08-17T16:31:37.789Z,1.40
2022-08-17T16:34:17.177Z,1.65
2022-08-17T16:36:54.836Z,1.50
2022-08-17T16:39:27.600Z,1.40
2022-08-17T16:41:56.580Z,1.50
2022-08-17T16:44:23.506Z,1.50
2022-08-17T16:46:50.535Z,1.40
2022-08-17T16:49:24.478Z,1.67
2022-08-17T16:52:07.220Z,1.17
2022-08-17T16:54:35.501Z,1.67
2022-08-17T16:57:05.229Z,1.65
2022-08-17T16:59:42.120Z,1.63
2022-08-17T17:02:15.284Z,1.50
2022-08-17T17:05:05.981Z,1.30
2022-08-17T17:07:53.619Z,1.50
2022-08-17T17:10:28.356Z,1.50
2022-08-17T17:13:02.162Z,1.60
2022-08-17T17:15:45.210Z,1.38
2022-08-17T17:18:13.701Z,1.67
2022-08-17T17:20:49.560Z,1.55
2022-08-17T17:23:44.860Z,1.50
2022-08-17T17:26:34.245Z,1.38
2022-08-17T17:29:28.165Z,1.67
2022-08-17T17:32:37.807Z,1.20
2022-08-17T17:35:20.401Z,1.70
2022-08-17T17:37:48.538Z,1.50
2022-08-17T17:40:42.118Z,1.60
2022-08-17T17:43:36.999Z,1.42
2022-08-17T17:46:25.430Z,1.67
2022-08-17T17:48:52.799Z,1.67
2022-08-17T17:51:55.739Z,1.52
2022-08-17T17:54:52.922Z,1.58
2022-08-17T17:57:59.622Z,1.75
2022-08-17T18:00:34.025Z,1.60
2022-08-17T18:03:14.524Z,1.77
2022-08-17T18:06:02.654Z,1.70
2022-08-17T18:08:56.823Z,1.67
2022-08-17T18:11:51.513Z,1.50
2022-08-17T18:14:36.312Z,1.80
2022-08-17T18:17:03.913Z,1.77
2022-08-17T18:19:32.021Z,1.60
2022-08-17T18:22:14.392Z,1.70
2022-08-17T18:24:43.962Z,1.40
2022-08-17T18:27:32.149Z,1.90
2022-08-17T18:30:05.846Z,1.63
2022-08-17T18:32:43.498Z,1.75
2022-08-17T18:35:12.295Z,1.58
2022-08-17T18:37:51.286Z,1.95
2022-08-17T18:40:19.360Z,1.45
2022-08-17T18:43:13.629Z,1.70
2022-08-17T18:45:48.201Z,1.90
2022-08-17T18:48:26.051Z,1.70
2022-08-17T18:50:57.646Z,1.95
2022-08-17T18:53:35.463Z,1.60
2022-08-17T18:56:17.521Z,1.90
2022-08-17T18:58:53.506Z,1.55
2022-08-17T19:01:21.470Z,1.83
2022-08-17T19:04:34.532Z,1.65
2022-08-17T19:07:31.181Z,1.70
2022-08-17T19:10:15.111Z,2.10
2022-08-17T19:12:48.260Z,2.10
2022-08-17T19:15:23.240Z,2.17
2022-08-17T19:18:05.545Z,1.83
2022-08-17T19:20:45.561Z,2.17
2022-08-17T19:23:53.560Z,2.70
2022-08-17T19:26:54.308Z,1.98
2022-08-17T19:29:29.589Z,2.10
2022-08-17T19:31:58.464Z,2.05
2022-08-17T19:34:33.135Z,2.05
2022-08-17T19:37:09.225Z,2.10
2022-08-17T19:39:58.167Z,2.80
2022-08-17T19:43:02.970Z,2.00
2022-08-17T19:45:55.969Z,2.13
2022-08-17T19:48:49.462Z,2.28
2022-08-17T19:51:50.566Z,1.95
2022-08-17T19:54:27.147Z,2.13
2022-08-17T19:57:04.672Z,2.13
2022-08-17T20:00:05.173Z,1.98
2022-08-17T20:02:53.234Z,2.35
2022-08-17T20:05:23.056Z,2.00
2022-08-17T20:08:12.741Z,2.15
2022-08-17T20:10:39.673Z,2.00
2022-08-17T20:13:11.141Z,1.90
2022-08-17T20:15:42.526Z,2.03
2022-08-17T20:18:43.955Z,2.17
2022-08-17T20:21:21.871Z,2.00
2022-08-17T20:24:13.258Z,2.35
2022-08-17T20:27:13.587Z,2.05
2022-08-17T20:30:02.944Z,2.35
2022-08-17T20:32:39.066Z,2.00
2022-08-17T20:35:21.497Z,2.05
2022-08-17T20:38:02.155Z,2.20
2022-08-17T20:40:40.976Z,2.50
2022-08-17T20:43:32.644Z,2.28
2022-08-17T20:46:20.470Z,2.40
2022-08-17T20:48:52.039Z,2.38
2022-08-17T20:51:31.432Z,2.10
2022-08-17T20:54:06.423Z,2.10
2022-08-17T20:56:46.394Z,2.22
2022-08-17T20:59:30.304Z,2.20
2022-08-17T21:02:08.065Z,2.05
2022-08-17T21:04:50.280Z,2.10
2022-08-17T21:07:42.954Z,2.40
2022-08-17T21:10:25.933Z,2.40
2022-08-17T21:13:04.411Z,2.50
2022-08-17T21:15:51.724Z,2.40
2022-08-17T21:18:18.462Z,2.50
2022-08-17T21:21:02.915Z,2.92
2022-08-17T21:24:13.813Z,2.45
2022-08-17T21:27:01.783Z,2.47
2022-08-17T21:29:33.830Z,2.20
2022-08-17T21:32:03.824Z,2.20
2022-08-17T21:34:36.671Z,2.28
2022-08-17T21:37:25.263Z,2.40
2022-08-17T21:40:10.455Z,2.20
2022-08-17T21:42:58.157Z,2.75
2022-08-17T21:45:30.911Z,2.38
2022-08-17T21:48:13.011Z,2.80
2022-08-17T21:50:43.325Z,2.58
2022-08-17T21:53:22.808Z,3.28
2022-08-17T21:55:51.481Z,2.40
2022-08-17T21:58:34.676Z,2.50
2022-08-17T22:01:23.502Z,2.35
2022-08-17T22:04:24.154Z,2.53
2022-08-17T22:06:57.432Z,2.70
2022-08-17T22:09:41.633Z,2.60
2022-08-17T22:12:16.379Z,2.67
2022-08-17T22:14:56.708Z,2.78
2022-08-17T22:17:35.388Z,2.42
2022-08-17T22:20:09.485Z,2.63
2022-08-17T22:23:12.463Z,2.67
2022-08-17T22:25:57.494Z,2.47
2022-08-17T22:28:43.835Z,2.45
2022-08-17T22:31:16.848Z,2.88
2022-08-17T22:33:48.910Z,2.65
2022-08-17T22:36:29.010Z,2.60
2022-08-17T22:39:07.395Z,2.50
2022-08-17T22:41:53.216Z,2.50
2022-08-17T22:44:37.485Z,2.53
2022-08-17T22:47:28.244Z,2.60
2022-08-17T22:49:58.396Z,2.55
2022-08-17T22:52:32.371Z,2.63
2022-08-17T22:55:32.542Z,2.50
2022-08-17T22:58:19.721Z,2.88
2022-08-17T23:00:49.335Z,2.88
2022-08-17T23:03:24.320Z,2.45
2022-08-17T23:06:09.569Z,2.25
2022-08-17T23:08:54.573Z,2.90
2022-08-17T23:11:36.923Z,2.70
2022-08-17T23:14:14.459Z,2.60
2022-08-17T23:16:44.484Z,2.90
2022-08-17T23:19:15.313Z,2.53
2022-08-17T23:21:44.833Z,2.40
2022-08-17T23:24:22.053Z,2.55
2022-08-17T23:26:49.138Z,2.70
2022-08-17T23:29:16.197Z,2.78
2022-08-17T23:31:43.147Z,3.13
2022-08-17T23:34:13.147Z,3.00
2022-08-17T23:36:39.970Z,2.38
2022-08-17T23:39:07.243Z,2.90
2022-08-17T23:41:37.449Z,2.50
2022-08-17T23:44:05.859Z,2.63
2022-08-17T23:46:33.319Z,2.80
2022-08-17T23:49:00.566Z,3.00
2022-08-17T23:51:31.433Z,2.58
2022-08-17T23:54:08.133Z,2.67
2022-08-17T23:56:45.396Z,2.65
2022-08-17T23:59:18.332Z,2.50
